createdAt,value
2018-12-06T00:01:49.224Z,100.00
2018-12-06T00:04:19.998Z,100.00
2018-12-06T00:06:50.903Z,100.00
2018-12-06T00:09:21.875Z,100.00
2018-12-06T00:11:52.683Z,100.00
2018-12-06T00:14:23.633Z,100.00
2018-12-06T00:16:58.812Z,100.00
2018-12-06T00:19:29.651Z,100.00
2018-12-06T00:22:00.554Z,100.00
2018-12-06T00:24:31.330Z,100.00
2018-12-06T00:27:02.463Z,100.00
2018-12-06T00:29:33.188Z,100.00
2018-12-06T00:32:04.067Z,100.00
2018-12-06T00:34:34.962Z,100.00
2018-12-06T00:37:05.780Z,100.00
2018-12-06T00:39:36.710Z,100.00
2018-12-06T00:42:07.663Z,100.00
2018-12-06T00:44:38.535Z,100.00
2018-12-06T00:47:09.442Z,100.00
2018-12-06T00:49:40.253Z,100.00
2018-12-06T00:52:11.329Z,100.00
2018-12-06T00:54:42.477Z,100.00
2018-12-06T00:57:13.434Z,100.00
2018-12-06T00:59:44.251Z,100.00
2018-12-06T01:02:15.170Z,100.00
2018-12-06T01:04:46.229Z,100.00
2018-12-06T01:07:16.933Z,100.00
2018-12-06T01:09:47.724Z,100.00
2018-12-06T01:12:18.774Z,100.00
2018-12-06T01:14:49.556Z,100.00
2018-12-06T01:17:20.344Z,100.00
2018-12-06T01:19:51.026Z,100.00
2018-12-06T01:22:22.193Z,100.00
2018-12-06T01:24:53.267Z,100.00
2018-12-06T01:27:24.177Z,100.00
2018-12-06T01:29:56.359Z,100.00
2018-12-06T01:32:27.300Z,100.00
2018-12-06T01:34:58.310Z,100.00
2018-12-06T01:37:29.098Z,100.00
2018-12-06T01:39:59.950Z,100.00
2018-12-06T01:42:30.835Z,100.00
2018-12-06T01:45:01.621Z,100.00
2018-12-06T01:47:32.330Z,100.00
2018-12-06T01:50:04.520Z,100.00
2018-12-06T01:52:35.272Z,100.00
2018-12-06T01:55:07.167Z,100.00
2018-12-06T01:57:37.743Z,100.00
2018-12-06T02:00:09.833Z,100.00
2018-12-06T02:02:40.803Z,100.00
2018-12-06T02:05:11.708Z,100.00
2018-12-06T02:07:42.749Z,100.00
2018-12-06T02:10:13.527Z,100.00
2018-12-06T02:12:44.424Z,100.00
2018-12-06T02:15:15.274Z,100.00
2018-12-06T02:17:46.353Z,100.00
2018-12-06T02:20:18.008Z,100.00
2018-12-06T02:22:48.716Z,100.00
2018-12-06T02:25:19.508Z,100.00
2018-12-06T02:27:57.121Z,100.00
2018-12-06T02:30:28.110Z,100.00
2018-12-06T02:32:59.029Z,100.00
2018-12-06T02:35:29.984Z,100.00
2018-12-06T02:38:00.769Z,100.00
2018-12-06T02:40:31.453Z,100.00
2018-12-06T02:43:02.431Z,100.00
2018-12-06T02:45:33.469Z,100.00
2018-12-06T02:48:04.273Z,100.00
2018-12-06T02:50:35.170Z,100.00
2018-12-06T02:53:05.840Z,100.00
2018-12-06T02:55:36.627Z,100.00
2018-12-06T02:58:07.819Z,100.00
2018-12-06T03:00:38.591Z,100.00
2018-12-06T03:03:09.714Z,100.00
2018-12-06T03:05:40.413Z,100.00
2018-12-06T03:08:11.281Z,100.00
2018-12-06T03:10:42.731Z,100.00
2018-12-06T03:13:13.715Z,100.00
2018-12-06T03:15:44.706Z,100.00
2018-12-06T03:18:15.623Z,100.00
2018-12-06T03:20:46.205Z,100.00
2018-12-06T03:23:17.152Z,100.00
2018-12-06T03:25:48.022Z,100.00
2018-12-06T03:28:19.090Z,100.00
2018-12-06T03:30:50.713Z,100.00
2018-12-06T03:33:21.466Z,100.00
2018-12-06T03:35:52.392Z,100.00
2018-12-06T03:38:23.318Z,100.00
2018-12-06T03:40:54.125Z,100.00
2018-12-06T03:43:24.881Z,100.00
2018-12-06T03:45:55.620Z,100.00
2018-12-06T03:48:26.704Z,100.00
2018-12-06T03:50:57.457Z,100.00
2018-12-06T03:53:28.398Z,100.00
2018-12-06T03:55:59.528Z,100.00
2018-12-06T03:58:30.417Z,100.00
2018-12-06T04:01:01.136Z,100.00
2018-12-06T04:03:31.926Z,100.00
2018-12-06T04:06:02.615Z,100.00
2018-12-06T04:08:33.301Z,100.00
2018-12-06T04:11:04.242Z,100.00
2018-12-06T04:13:35.016Z,100.00
2018-12-06T04:16:05.909Z,100.00
2018-12-06T04:18:36.689Z,100.00
2018-12-06T04:21:07.609Z,100.00
2018-12-06T04:23:38.460Z,100.00
2018-12-06T04:26:09.387Z,100.00
2018-12-06T04:28:40.210Z,100.00
2018-12-06T04:31:10.942Z,100.00
2018-12-06T04:33:42.661Z,100.00
2018-12-06T04:36:13.519Z,100.00
2018-12-06T04:38:44.244Z,100.00
2018-12-06T04:41:14.894Z,100.00
2018-12-06T04:43:52.615Z,100.00
2018-12-06T04:46:23.881Z,100.00
2018-12-06T04:48:54.692Z,100.00
2018-12-06T04:51:25.561Z,100.00
2018-12-06T04:53:56.449Z,100.00
2018-12-06T04:56:27.317Z,100.00
2018-12-06T04:58:58.171Z,100.00
2018-12-06T05:01:29.083Z,100.00
2018-12-06T05:04:00.079Z,100.00
2018-12-06T05:06:30.786Z,100.00
2018-12-06T05:09:01.504Z,100.00
2018-12-06T05:11:32.311Z,100.00
2018-12-06T05:14:03.605Z,100.00
2018-12-06T05:16:35.000Z,100.00
2018-12-06T05:19:05.925Z,100.00
2018-12-06T05:21:36.591Z,100.00
2018-12-06T05:24:07.373Z,100.00
2018-12-06T05:26:37.913Z,100.00
2018-12-06T05:29:08.543Z,100.00
2018-12-06T05:31:39.611Z,100.00
2018-12-06T05:34:11.450Z,100.00
2018-12-06T05:36:42.798Z,100.00
2018-12-06T05:39:14.587Z,100.00
2018-12-06T05:41:45.315Z,100.00
2018-12-06T05:44:16.169Z,100.00
2018-12-06T05:46:47.125Z,100.00
2018-12-06T05:49:18.851Z,100.00
2018-12-06T05:51:49.790Z,100.00
2018-12-06T05:54:20.894Z,100.00
2018-12-06T05:56:51.832Z,100.00
2018-12-06T05:59:22.794Z,100.00
2018-12-06T06:01:53.721Z,100.00
2018-12-06T06:04:24.504Z,100.00
2018-12-06T06:06:58.499Z,100.00
2018-12-06T06:09:29.289Z,100.00
2018-12-06T06:12:00.276Z,100.00
2018-12-06T06:14:31.095Z,100.00
2018-12-06T06:17:02.298Z,100.00
2018-12-06T06:19:33.050Z,100.00
2018-12-06T06:22:03.851Z,100.00
2018-12-06T06:24:34.725Z,100.00
2018-12-06T06:27:05.568Z,100.00
2018-12-06T06:29:36.472Z,100.00
2018-12-06T06:32:07.428Z,100.00
2018-12-06T06:34:38.208Z,100.00
2018-12-06T06:37:09.061Z,100.00
2018-12-06T06:39:40.820Z,100.00
2018-12-06T06:42:11.536Z,100.00
2018-12-06T06:44:42.233Z,100.00
2018-12-06T06:47:12.978Z,100.00
2018-12-06T06:49:43.895Z,100.00
2018-12-06T06:52:14.731Z,100.00
2018-12-06T06:54:45.710Z,100.00
2018-12-06T06:57:16.648Z,100.00
2018-12-06T06:59:47.437Z,100.00
2018-12-06T07:02:18.365Z,100.00
2018-12-06T07:04:49.777Z,100.00
2018-12-06T07:07:21.456Z,100.00
2018-12-06T07:09:52.182Z,100.00
2018-12-06T07:12:23.070Z,100.00
2018-12-06T07:14:54.052Z,100.00
2018-12-06T07:17:25.045Z,100.00
2018-12-06T07:19:56.166Z,100.00
2018-12-06T07:22:27.009Z,100.00
2018-12-06T07:24:58.078Z,100.00
2018-12-06T07:27:30.348Z,100.00
2018-12-06T07:30:01.159Z,100.00
2018-12-06T07:32:32.261Z,100.00
2018-12-06T07:35:03.325Z,100.00
2018-12-06T07:37:34.087Z,100.00
2018-12-06T07:40:05.215Z,100.00
2018-12-06T07:42:37.210Z,100.00
2018-12-06T07:45:08.633Z,100.00
2018-12-06T07:47:39.781Z,100.00
2018-12-06T07:50:10.874Z,100.00
2018-12-06T07:52:41.808Z,100.00
2018-12-06T07:55:12.528Z,100.00
2018-12-06T07:57:44.404Z,100.00
2018-12-06T08:00:16.581Z,100.00
2018-12-06T08:02:47.373Z,100.00
2018-12-06T08:05:18.151Z,100.00
2018-12-06T08:07:48.977Z,100.00
2018-12-06T08:10:19.913Z,100.00
2018-12-06T08:12:50.734Z,100.00
2018-12-06T08:15:21.928Z,100.00
2018-12-06T08:17:53.637Z,100.00
2018-12-06T08:20:24.766Z,100.00
2018-12-06T08:22:56.687Z,100.00
2018-12-06T08:25:27.790Z,100.00
2018-12-06T08:27:58.836Z,100.00
2018-12-06T08:30:30.007Z,100.00
2018-12-06T08:33:01.023Z,100.00
2018-12-06T08:35:31.923Z,100.00
2018-12-06T08:38:03.254Z,100.00
2018-12-06T08:40:34.283Z,100.00
2018-12-06T08:43:05.157Z,100.00
2018-12-06T08:45:36.170Z,100.00
2018-12-06T08:48:07.170Z,100.00
2018-12-06T08:50:38.273Z,100.00
2018-12-06T08:53:09.311Z,100.00
2018-12-06T08:55:40.384Z,100.00
2018-12-06T08:58:11.201Z,100.00
2018-12-06T09:00:41.911Z,100.00
2018-12-06T09:03:12.839Z,100.00
2018-12-06T09:05:43.785Z,100.00
2018-12-06T09:08:14.685Z,99.99
2018-12-06T09:10:51.531Z,99.38
2018-12-06T09:13:19.662Z,98.18
2018-12-06T09:15:50.731Z,100.00
2018-12-06T09:18:22.166Z,100.00
2018-12-06T09:20:53.086Z,100.00
2018-12-06T09:23:24.080Z,100.00
2018-12-06T09:25:55.743Z,100.00
2018-12-06T09:28:26.719Z,100.00
2018-12-06T09:31:01.017Z,100.00
2018-12-06T09:33:31.413Z,98.61
2018-12-06T09:36:02.201Z,95.47
2018-12-06T09:38:33.050Z,93.49
2018-12-06T09:41:03.971Z,96.39
2018-12-06T09:43:34.706Z,96.50
2018-12-06T09:46:05.922Z,98.18
2018-12-06T09:48:36.714Z,99.66
2018-12-06T09:51:07.639Z,100.00
2018-12-06T09:53:38.825Z,100.00
2018-12-06T09:56:10.356Z,100.00
2018-12-06T09:58:41.175Z,100.00
2018-12-06T10:01:12.279Z,100.00
2018-12-06T10:03:43.233Z,100.00
2018-12-06T10:06:14.143Z,100.00
2018-12-06T10:08:45.208Z,100.00
2018-12-06T10:11:16.428Z,100.00
2018-12-06T10:13:47.689Z,100.00
2018-12-06T10:16:18.677Z,100.00
2018-12-06T10:18:49.621Z,100.00
2018-12-06T10:21:20.508Z,100.00
2018-12-06T10:23:51.679Z,100.00
2018-12-06T10:26:22.461Z,100.00
2018-12-06T10:28:53.481Z,100.00
2018-12-06T10:31:24.534Z,100.00
2018-12-06T10:33:55.459Z,100.00
2018-12-06T10:36:26.308Z,100.00
2018-12-06T10:38:56.964Z,100.00
2018-12-06T10:41:27.883Z,100.00
2018-12-06T10:43:58.836Z,100.00
2018-12-06T10:46:30.009Z,100.00
2018-12-06T10:49:00.933Z,100.00
2018-12-06T10:51:51.540Z,100.00
2018-12-06T10:54:22.946Z,100.00
2018-12-06T10:56:54.298Z,100.00
2018-12-06T10:59:25.331Z,100.00
2018-12-06T11:02:01.101Z,100.00
2018-12-06T11:04:37.456Z,100.00
2018-12-06T11:07:09.339Z,100.00
2018-12-06T11:09:40.450Z,100.00
2018-12-06T11:12:11.356Z,100.00
2018-12-06T11:14:42.488Z,100.00
2018-12-06T11:17:13.466Z,100.00
2018-12-06T11:19:44.407Z,100.00
2018-12-06T11:22:15.297Z,100.00
2018-12-06T11:24:46.260Z,100.00
2018-12-06T11:27:17.184Z,100.00
2018-12-06T11:29:48.063Z,100.00
2018-12-06T11:32:19.538Z,100.00
2018-12-06T11:34:50.373Z,100.00
2018-12-06T11:37:22.070Z,100.00
2018-12-06T11:39:52.937Z,100.00
2018-12-06T11:42:23.909Z,100.00
2018-12-06T11:44:54.922Z,100.00
2018-12-06T11:47:25.714Z,100.00
2018-12-06T11:49:56.716Z,100.00
2018-12-06T11:52:27.763Z,100.00
2018-12-06T11:54:59.859Z,100.00
2018-12-06T11:57:30.585Z,100.00
2018-12-06T12:00:01.817Z,100.00
2018-12-06T12:02:32.795Z,100.00
2018-12-06T12:05:04.106Z,100.00
2018-12-06T12:07:35.809Z,100.00
2018-12-06T12:10:07.603Z,100.00
2018-12-06T12:12:38.497Z,100.00
2018-12-06T12:15:10.438Z,100.00
2018-12-06T12:17:41.582Z,100.00
2018-12-06T12:20:12.595Z,100.00
2018-12-06T12:22:43.584Z,100.00
2018-12-06T12:25:14.537Z,100.00
2018-12-06T12:27:45.472Z,100.00
2018-12-06T12:30:16.698Z,100.00
2018-12-06T12:32:47.675Z,100.00
2018-12-06T12:35:19.409Z,100.00
2018-12-06T12:37:50.465Z,100.00
2018-12-06T12:40:21.700Z,100.00
2018-12-06T12:42:53.023Z,100.00
2018-12-06T12:45:23.943Z,100.00
2018-12-06T12:47:54.965Z,100.00
2018-12-06T12:50:25.854Z,100.00
2018-12-06T12:52:57.201Z,100.00
2018-12-06T12:55:28.009Z,100.00
2018-12-06T12:57:59.597Z,100.00
2018-12-06T13:00:31.449Z,100.00
2018-12-06T13:03:03.881Z,100.00
2018-12-06T13:05:34.656Z,100.00
2018-12-06T13:08:05.504Z,100.00
2018-12-06T13:10:36.962Z,100.00
2018-12-06T13:13:07.829Z,100.00
2018-12-06T13:15:38.827Z,100.00
2018-12-06T13:18:10.268Z,100.00
2018-12-06T13:20:41.316Z,100.00
2018-12-06T13:23:12.110Z,100.00
2018-12-06T13:25:44.367Z,100.00
2018-12-06T13:28:15.828Z,100.00
2018-12-06T13:30:46.856Z,100.00
2018-12-06T13:33:17.708Z,100.00
2018-12-06T13:35:49.173Z,100.00
2018-12-06T13:38:21.367Z,100.00
2018-12-06T13:40:52.749Z,100.00
2018-12-06T13:43:25.237Z,100.00
2018-12-06T13:45:56.790Z,100.00
2018-12-06T13:48:30.119Z,100.00
2018-12-06T13:51:01.973Z,100.00
2018-12-06T13:53:33.365Z,100.00
2018-12-06T13:56:05.096Z,100.00
2018-12-06T13:58:36.323Z,100.00
2018-12-06T14:01:07.504Z,100.00
2018-12-06T14:03:39.406Z,100.00
2018-12-06T14:06:10.063Z,100.00
2018-12-06T14:08:41.077Z,100.00
2018-12-06T14:11:12.153Z,100.00
2018-12-06T14:13:43.459Z,100.00
2018-12-06T14:16:14.287Z,100.00
2018-12-06T14:18:45.254Z,100.00
2018-12-06T14:21:16.265Z,100.00
2018-12-06T14:23:47.388Z,100.00
2018-12-06T14:26:18.583Z,100.00
2018-12-06T14:28:49.570Z,100.00
2018-12-06T14:31:20.903Z,100.00
2018-12-06T14:33:51.789Z,100.00
2018-12-06T14:36:22.705Z,100.00
2018-12-06T14:38:53.895Z,100.00
2018-12-06T14:41:25.311Z,100.00
2018-12-06T14:43:56.683Z,100.00
2018-12-06T14:46:28.341Z,100.00
2018-12-06T14:48:59.482Z,100.00
2018-12-06T14:51:31.237Z,100.00
2018-12-06T14:54:02.582Z,100.00
2018-12-06T14:56:34.413Z,100.00
2018-12-06T14:59:06.261Z,100.00
2018-12-06T15:01:37.165Z,100.00
2018-12-06T15:04:08.366Z,100.00
2018-12-06T15:06:39.538Z,100.00
2018-12-06T15:09:12.520Z,100.00
2018-12-06T15:11:43.558Z,100.00
2018-12-06T15:14:14.500Z,100.00
2018-12-06T15:16:45.771Z,100.00
2018-12-06T15:19:17.303Z,100.00
2018-12-06T15:21:49.150Z,100.00
2018-12-06T15:24:20.678Z,100.00
2018-12-06T15:26:51.886Z,100.00
2018-12-06T15:29:22.973Z,100.00
2018-12-06T15:31:54.175Z,100.00
2018-12-06T15:34:25.172Z,100.00
2018-12-06T15:36:56.236Z,100.00
2018-12-06T15:39:27.012Z,100.00
2018-12-06T15:41:58.027Z,100.00
2018-12-06T15:44:29.004Z,100.00
2018-12-06T15:46:59.758Z,100.00
2018-12-06T15:49:31.899Z,100.00
2018-12-06T15:52:02.977Z,100.00
2018-12-06T15:54:33.983Z,100.00
2018-12-06T15:57:05.117Z,100.00
2018-12-06T15:59:36.407Z,100.00
2018-12-06T16:02:07.919Z,100.00
2018-12-06T16:04:39.102Z,100.00
2018-12-06T16:07:10.033Z,100.00
2018-12-06T16:09:41.502Z,100.00
2018-12-06T16:12:12.252Z,100.00
2018-12-06T16:14:43.502Z,100.00
2018-12-06T16:17:14.754Z,100.00
2018-12-06T16:19:45.742Z,100.00
2018-12-06T16:22:17.415Z,100.00
2018-12-06T16:24:48.475Z,100.00
2018-12-06T16:27:20.405Z,100.00
2018-12-06T16:29:51.773Z,100.00
2018-12-06T16:32:23.555Z,100.00
2018-12-06T16:34:54.648Z,100.00
2018-12-06T16:37:25.850Z,100.00
2018-12-06T16:39:56.652Z,100.00
2018-12-06T16:42:28.089Z,100.00
2018-12-06T16:44:59.684Z,100.00
2018-12-06T16:47:31.765Z,100.00
2018-12-06T16:50:02.800Z,100.00
2018-12-06T16:52:33.962Z,100.00
2018-12-06T16:55:05.727Z,100.00
2018-12-06T16:57:36.916Z,100.00
2018-12-06T17:00:14.666Z,100.00
2018-12-06T17:02:46.368Z,100.00
2018-12-06T17:05:17.936Z,100.00
2018-12-06T17:07:49.998Z,100.00
2018-12-06T17:10:20.981Z,100.00
2018-12-06T17:12:51.847Z,100.00
2018-12-06T17:15:22.963Z,100.00
2018-12-06T17:17:53.844Z,100.00
2018-12-06T17:20:25.873Z,100.00
2018-12-06T17:22:57.005Z,100.00
2018-12-06T17:25:28.622Z,100.00
2018-12-06T17:27:59.815Z,100.00
2018-12-06T17:30:30.905Z,100.00
2018-12-06T17:33:01.899Z,100.00
2018-12-06T17:35:33.146Z,100.00
2018-12-06T17:38:04.203Z,100.00
2018-12-06T17:40:36.081Z,100.00
2018-12-06T17:43:07.154Z,100.00
2018-12-06T17:45:38.601Z,100.00
2018-12-06T17:48:10.336Z,100.00
2018-12-06T17:50:41.478Z,100.00
2018-12-06T17:53:12.723Z,100.00
2018-12-06T17:55:55.721Z,100.00
2018-12-06T17:58:26.806Z,100.00
2018-12-06T18:00:57.668Z,100.00
2018-12-06T18:03:28.860Z,100.00
2018-12-06T18:06:00.073Z,100.00
2018-12-06T18:08:31.760Z,100.00
2018-12-06T18:11:02.935Z,100.00
2018-12-06T18:13:34.160Z,100.00
2018-12-06T18:16:05.335Z,100.00
2018-12-06T18:18:40.365Z,100.00
2018-12-06T18:21:09.928Z,100.00
2018-12-06T18:23:41.846Z,100.00
2018-12-06T18:26:12.704Z,100.00
2018-12-06T18:28:43.652Z,100.00
2018-12-06T18:31:14.800Z,100.00
2018-12-06T18:33:45.907Z,100.00
2018-12-06T18:36:17.356Z,100.00
2018-12-06T18:38:48.541Z,100.00
2018-12-06T18:41:20.431Z,100.00
2018-12-06T18:43:51.857Z,100.00
2018-12-06T18:46:23.206Z,100.00
2018-12-06T18:48:55.225Z,100.00
2018-12-06T18:51:26.675Z,100.00
2018-12-06T18:53:58.456Z,100.00
2018-12-06T18:56:30.099Z,100.00
2018-12-06T18:59:01.818Z,100.00
2018-12-06T19:01:33.460Z,100.00
2018-12-06T19:04:05.561Z,100.00
2018-12-06T19:06:45.140Z,100.00
2018-12-06T19:09:16.395Z,100.00
2018-12-06T19:11:47.575Z,100.00
2018-12-06T19:14:21.765Z,100.00
2018-12-06T19:16:51.954Z,100.00
2018-12-06T19:19:23.202Z,100.00
2018-12-06T19:21:54.532Z,100.00
2018-12-06T19:24:25.808Z,100.00
2018-12-06T19:26:57.925Z,100.00
2018-12-06T19:29:29.906Z,100.00
2018-12-06T19:32:02.174Z,100.00
2018-12-06T19:34:33.527Z,100.00
2018-12-06T19:37:04.884Z,100.00
2018-12-06T19:39:38.209Z,100.00
2018-12-06T19:42:13.116Z,100.00
2018-12-06T19:44:46.777Z,100.00
2018-12-06T19:47:21.364Z,100.00
2018-12-06T19:49:54.477Z,100.00
2018-12-06T19:52:28.451Z,100.00
2018-12-06T19:55:01.393Z,100.00
2018-12-06T19:57:34.322Z,100.00
2018-12-06T20:00:08.445Z,100.00
2018-12-06T20:02:40.919Z,100.00
2018-12-06T20:05:13.967Z,100.00
2018-12-06T20:07:46.014Z,100.00
2018-12-06T20:10:18.121Z,100.00
2018-12-06T20:12:51.534Z,100.00
2018-12-06T20:15:23.255Z,100.00
2018-12-06T20:17:56.937Z,100.00
2018-12-06T20:20:28.772Z,100.00
2018-12-06T20:23:00.754Z,100.00
2018-12-06T20:25:32.984Z,100.00
2018-12-06T20:28:05.163Z,100.00
2018-12-06T20:30:37.123Z,100.00
2018-12-06T20:33:10.957Z,100.00
2018-12-06T20:35:43.652Z,100.00
2018-12-06T20:38:17.179Z,100.00
2018-12-06T20:40:48.848Z,100.00
2018-12-06T20:43:21.655Z,100.00
2018-12-06T20:45:53.722Z,100.00
2018-12-06T20:48:25.657Z,100.00
2018-12-06T20:50:58.155Z,100.00
2018-12-06T20:53:30.606Z,100.00
2018-12-06T20:56:02.650Z,100.00
2018-12-06T20:58:35.543Z,100.00
2018-12-06T21:01:08.244Z,100.00
2018-12-06T21:03:41.688Z,100.00
2018-12-06T21:06:13.432Z,100.00
2018-12-06T21:08:46.005Z,100.00
2018-12-06T21:11:17.817Z,100.00
2018-12-06T21:13:48.920Z,100.00
2018-12-06T21:16:20.198Z,100.00
2018-12-06T21:18:53.083Z,100.00
2018-12-06T21:21:25.918Z,100.00
2018-12-06T21:23:57.173Z,100.00
2018-12-06T21:26:28.520Z,100.00
2018-12-06T21:28:59.750Z,100.00
2018-12-06T21:31:31.290Z,100.00
2018-12-06T21:34:03.113Z,100.00
2018-12-06T21:36:35.111Z,100.00
2018-12-06T21:39:09.755Z,100.00
2018-12-06T21:41:41.288Z,100.00
2018-12-06T21:44:12.746Z,100.00
2018-12-06T21:46:44.459Z,100.00
2018-12-06T21:49:16.579Z,100.00
2018-12-06T21:51:48.816Z,100.00
2018-12-06T21:54:20.327Z,100.00
2018-12-06T21:56:51.603Z,100.00
2018-12-06T21:59:24.195Z,100.00
2018-12-06T22:02:10.274Z,100.00
2018-12-06T22:04:42.662Z,100.00
2018-12-06T22:07:14.323Z,100.00
2018-12-06T22:09:47.698Z,100.00
2018-12-06T22:12:20.662Z,100.00
2018-12-06T22:14:52.904Z,100.00
2018-12-06T22:17:24.331Z,100.00
2018-12-06T22:19:56.524Z,100.00
2018-12-06T22:22:28.355Z,100.00
2018-12-06T22:24:59.925Z,100.00
2018-12-06T22:27:31.384Z,100.00
2018-12-06T22:30:03.023Z,100.00
2018-12-06T22:32:34.789Z,100.00
2018-12-06T22:35:06.306Z,100.00
2018-12-06T22:37:38.013Z,100.00
2018-12-06T22:40:09.679Z,100.00
2018-12-06T22:42:40.820Z,100.00
2018-12-06T22:46:20.110Z,100.00
2018-12-06T22:48:51.492Z,100.00
2018-12-06T22:51:24.414Z,100.00
2018-12-06T22:53:56.270Z,100.00
2018-12-06T22:56:27.762Z,100.00
2018-12-06T22:58:59.226Z,100.00
2018-12-06T23:01:35.233Z,100.00
2018-12-06T23:04:06.258Z,100.00
2018-12-06T23:06:37.603Z,100.00
2018-12-06T23:09:12.224Z,100.00
2018-12-06T23:11:46.077Z,100.00
2018-12-06T23:14:17.132Z,100.00
2018-12-06T23:16:48.179Z,100.00
2018-12-06T23:19:19.335Z,100.00
2018-12-06T23:21:50.094Z,100.00
2018-12-06T23:24:22.268Z,100.00
2018-12-06T23:26:53.068Z,100.00
2018-12-06T23:29:24.128Z,100.00
2018-12-06T23:31:54.998Z,100.00
2018-12-06T23:34:25.847Z,100.00
2018-12-06T23:36:56.647Z,100.00
2018-12-06T23:39:28.492Z,100.00
2018-12-06T23:41:59.437Z,100.00
2018-12-06T23:44:30.268Z,100.00
2018-12-06T23:47:00.927Z,100.00
2018-12-06T23:49:31.835Z,100.00
2018-12-06T23:52:02.597Z,100.00
2018-12-06T23:54:33.327Z,100.00
2018-12-06T23:57:04.264Z,100.00
2018-12-06T23:59:35.255Z,100.00
